Airfield :
LOGIN :

Register | Disclaimer

   EN    FR    IT 

 










Legend :    VFR   Marginal VFR   IFR   Intensive IFR   Very Intensive IFR
Visi :
Ceiling :
>= 8 km
>= 3000ft
5 to 8 km
1000 to 3000 ft
1500m to 5 km
500 to 1000 ft
800 to 1500m
200 to 500 ft
< 800m
< 200 ft
Symbols :   Thunderstorms  Fog  Heavy snow  Heavy precipitations  Wind > 20 kt
SIGMETs :     Misc.  Thunderstorms  Icing  Turbulence  Mountain Waves  Volcanic Ashes






- Airport Elevation : 121 ft
- IATA code : HUY


EGNJ - Humberside

CURRENT METAR :
  • 270750Z 24005KT 2500 SN BKN003 OVC008 01/01 Q0997

EXPIRED METARs :
  • 270720Z 25007KT 2500 -RASN BKN003 OVC008 01/01 Q0997
  • 270650Z 22006KT 4000 RA OVC006 01/01 Q0997
  • 270620Z 21006KT 7000 RA SCT004 OVC008 02/01 Q0997
  • 270550Z 21008KT 9999 -RA SCT008 BKN012 02/02 Q0997
  • 270520Z AUTO 21007KT 9999 RA FEW008/// BKN012/// OVC038/// 02/01 Q0997

TAF AMD TAF EGNJ
Valid from the 27 at 07:00 until the 27 at 15:00 UTC


270729Z 2707/2715 20010KT 9999 SCT014 BKN030
BECMG 2707/2710 28010KT
TEMPO 2707/2710 6000 RA BKN008
PROB30
TEMPO 2707/2710 2500 RASN BKN004
PROB30
TEMPO 2712/2715 30015G25KT
ATIS : +44 1652 682 020



MET'MAP, your aeronautical weather chart ! - Copyright ORBIFLY December 2007 - Disclaimer

ORBIFLY MET'MAP TEAM :

Programming & Development : Alexandra Zaïnal
Concept & original design : Baudouin d'Aumeries
Assistance for programming : Marc-Olivier Méhu
Technical & hardware support : Manuel Goepfert

Contact : metmap@orbifly.com




SOURCES & CREDITS :

   NOAA